Time;durP1;ratioP1;P1;durP2;ratioP2;P2;SDS_P1;SDS_P2;PMS_P1;PMS_P2;Temp;Humidity;BMP_temperature;BMP_pressure;BME280_temperature;BME280_humidity;BME280_pressure;Samples;Min_cycle;Max_cycle;Signal;HPM_P1;HPM_P2
2023/10/31 00:00:09;;;;;;;25.75;12.15;;;;;;;12.49;77.09;100128.55;1737616;82;21012;-66
2023/10/31 00:02:39;;;;;;;27.17;13.20;;;;;;;12.46;77.26;100120.73;1737452;82;21495;-67
2023/10/31 00:05:08;;;;;;;28.55;12.70;;;;;;;12.45;77.47;100117.15;1737554;82;21051;-66
2023/10/31 00:07:37;;;;;;;27.87;12.58;;;;;;;12.43;77.66;100111.03;1737631;82;21072;-66
2023/10/31 00:10:07;;;;;;;24.90;12.75;;;;;;;12.41;77.79;100110.93;1737607;82;21643;-65
2023/10/31 00:12:36;;;;;;;23.07;11.93;;;;;;;12.36;77.93;100108.30;1737545;82;21067;-66
2023/10/31 00:15:05;;;;;;;22.55;11.57;;;;;;;12.35;78.07;100102.99;1739793;82;21091;-66
2023/10/31 00:17:34;;;;;;;27.95;13.43;;;;;;;12.32;78.18;100104.80;1740328;82;21478;-66
2023/10/31 00:20:05;;;;;;;25.50;12.43;;;;;;;12.28;78.22;100101.64;1740395;82;21075;-66
2023/10/31 00:22:33;;;;;;;26.95;12.68;;;;;;;12.22;78.35;100101.13;1740452;82;21043;-67
2023/10/31 00:25:04;;;;;;;26.77;12.40;;;;;;;12.19;78.54;100096.59;1740310;82;21734;-65
2023/10/31 00:27:34;;;;;;;24.47;12.33;;;;;;;12.14;78.66;100094.50;1740435;82;21055;-65
2023/10/31 00:30:05;;;;;;;25.45;12.25;;;;;;;12.10;78.81;100109.72;1740489;82;21106;-65
2023/10/31 00:32:36;;;;;;;30.40;12.55;;;;;;;12.05;78.96;100094.42;1740502;82;21047;-65
2023/10/31 00:35:06;;;;;;;29.65;13.08;;;;;;;11.99;79.16;100094.75;1740342;82;21067;-66
2023/10/31 00:37:35;;;;;;;27.37;12.78;;;;;;;11.94;79.31;100089.59;1740314;82;21529;-65
2023/10/31 00:40:07;;;;;;;24.43;11.20;;;;;;;11.89;79.55;100089.38;1740334;82;21056;-66
2023/10/31 00:42:37;;;;;;;27.00;12.70;;;;;;;11.86;79.74;100082.95;1740207;82;21099;-65
2023/10/31 00:45:07;;;;;;;27.07;13.15;;;;;;;11.82;79.92;100076.20;1740352;82;21052;-67
2023/10/31 00:47:36;;;;;;;27.13;12.23;;;;;;;11.80;80.10;100077.78;1740280;82;21067;-66
2023/10/31 00:50:08;;;;;;;25.52;12.40;;;;;;;11.79;80.20;100073.88;1740473;82;21024;-66
2023/10/31 00:52:38;;;;;;;25.95;12.98;;;;;;;11.74;80.29;100076.70;1740571;82;21044;-65
2023/10/31 00:55:08;;;;;;;29.92;12.60;;;;;;;11.68;80.45;100072.03;1740380;82;21086;-66
2023/10/31 00:57:38;;;;;;;23.65;11.73;;;;;;;11.68;80.63;100069.82;1740302;82;21044;-66
2023/10/31 01:00:09;;;;;;;23.47;11.30;;;;;;;11.66;80.74;100079.64;1714062;82;21447;-66
2023/10/31 01:02:38;;;;;;;22.45;12.18;;;;;;;11.62;80.85;100078.38;1740434;82;21448;-67
2023/10/31 01:05:08;;;;;;;26.15;12.80;;;;;;;11.60;81.01;100082.39;1740508;82;21048;-66
2023/10/31 01:07:38;;;;;;;26.15;12.40;;;;;;;11.56;81.24;100076.48;1740494;82;21055;-67
2023/10/31 01:10:08;;;;;;;24.75;11.75;;;;;;;11.55;81.47;100078.06;1740334;82;21031;-66
2023/10/31 01:12:37;;;;;;;26.05;12.68;;;;;;;11.55;81.62;100079.44;1740175;82;21079;-66
2023/10/31 01:15:07;;;;;;;29.12;12.30;;;;;;;11.53;81.71;100078.80;1740318;82;21107;-66
2023/10/31 01:17:37;;;;;;;28.35;12.25;;;;;;;11.50;81.82;100068.25;1740287;82;21040;-68
2023/10/31 01:20:07;;;;;;;27.00;12.60;;;;;;;11.47;81.92;100084.61;1740329;82;21075;-66
2023/10/31 01:22:36;;;;;;;26.17;12.18;;;;;;;11.46;82.05;100084.30;1713919;82;21491;-65
2023/10/31 01:25:06;;;;;;;23.05;11.93;;;;;;;11.46;82.20;100084.83;1740291;82;21278;-65
2023/10/31 01:27:35;;;;;;;25.15;11.33;;;;;;;11.45;82.32;100086.72;1740424;82;21051;-66
2023/10/31 01:30:07;;;;;;;22.40;12.05;;;;;;;11.45;82.44;100093.58;1740362;82;21491;-65
2023/10/31 01:32:36;;;;;;;24.15;11.73;;;;;;;11.40;82.44;100085.14;1740253;82;21047;-66
2023/10/31 01:35:06;;;;;;;28.05;12.50;;;;;;;11.35;82.63;100077.55;1740291;82;21059;-66
2023/10/31 01:37:35;;;;;;;24.43;11.60;;;;;;;11.33;82.89;100078.28;1740726;82;21016;-66
2023/10/31 01:40:07;;;;;;;24.07;11.03;;;;;;;11.30;82.91;100081.45;1740283;82;21122;-64
2023/10/31 01:42:36;;;;;;;26.25;12.30;;;;;;;11.24;83.09;100078.17;1740203;82;21459;-66
2023/10/31 01:45:06;;;;;;;21.95;11.75;;;;;;;11.19;83.32;100083.44;1740294;82;21098;-66
2023/10/31 01:47:35;;;;;;;22.87;11.15;;;;;;;11.16;83.54;100083.02;1740503;82;21099;-66
2023/10/31 01:50:06;;;;;;;29.77;12.15;;;;;;;11.11;83.68;100075.42;1740562;82;21032;-68
2023/10/31 01:52:35;;;;;;;24.37;11.18;;;;;;;11.08;83.89;100081.32;1740098;82;21147;-66
2023/10/31 01:55:05;;;;;;;21.62;11.00;;;;;;;11.06;84.04;100078.79;1740485;82;21103;-66
2023/10/31 01:57:34;;;;;;;23.05;11.12;;;;;;;11.07;84.23;100083.22;1740469;82;21091;-65
2023/10/31 02:00:04;;;;;;;26.12;11.63;;;;;;;11.04;84.32;100076.75;1651601;86;21523;-66
2023/10/31 02:02:35;;;;;;;23.73;11.38;;;;;;;11.04;84.37;100074.53;1651636;87;21619;-66
2023/10/31 02:05:04;;;;;;;24.82;12.60;;;;;;;11.01;84.51;100070.31;1651865;86;21044;-65
2023/10/31 02:07:32;;;;;;;24.50;11.93;;;;;;;11.03;84.59;100069.58;1651916;87;21049;-67
2023/10/31 02:10:03;;;;;;;23.92;11.08;;;;;;;11.02;84.62;100070.63;1651629;87;21087;-65
2023/10/31 02:12:36;;;;;;;23.98;12.53;;;;;;;10.99;84.66;100072.42;1651530;87;21076;-66
2023/10/31 02:15:06;;;;;;;29.60;12.00;;;;;;;10.99;84.72;100072.42;1650610;87;21083;-65
2023/10/31 02:17:35;;;;;;;23.85;11.40;;;;;;;10.97;84.75;100082.75;1671019;82;21479;-65
2023/10/31 02:20:05;;;;;;;22.85;10.63;;;;;;;10.96;84.77;100081.59;1735870;82;21444;-66
2023/10/31 02:22:34;;;;;;;25.12;11.53;;;;;;;10.92;84.78;100084.42;1735817;82;21060;-65
2023/10/31 02:25:06;;;;;;;24.23;10.80;;;;;;;10.87;84.88;100078.20;1735742;83;21533;-66
2023/10/31 02:27:34;;;;;;;24.02;11.40;;;;;;;10.88;85.02;100084.00;1734444;83;21541;-66
2023/10/31 02:30:05;;;;;;;23.85;10.70;;;;;;;10.85;85.04;100080.83;1735925;82;21463;-65
2023/10/31 02:32:36;;;;;;;19.95;10.30;;;;;;;10.83;85.19;100082.41;1735920;83;21119;-66
2023/10/31 02:35:08;;;;;;;21.70;10.53;;;;;;;10.82;85.25;100076.60;1735835;82;21036;-65
2023/10/31 02:37:36;;;;;;;25.05;10.75;;;;;;;10.76;85.34;100072.80;1735769;83;21456;-66
2023/10/31 02:40:07;;;;;;;23.55;11.10;;;;;;;10.73;85.49;100066.88;1735811;83;21452;-66
2023/10/31 02:42:37;;;;;;;25.00;11.55;;;;;;;10.70;85.55;100061.30;1735568;83;21486;-66
2023/10/31 02:45:08;;;;;;;34.30;15.78;;;;;;;10.69;85.69;100062.34;1735900;82;21075;-65
2023/10/31 02:47:38;;;;;;;31.62;15.93;;;;;;;10.68;85.70;100066.13;1736023;83;21044;-66
2023/10/31 02:50:08;;;;;;;31.15;14.80;;;;;;;10.63;85.80;100066.44;1735834;82;21545;-65
2023/10/31 02:52:37;;;;;;;30.30;15.60;;;;;;;10.61;86.04;100069.91;1735706;82;21023;-66
2023/10/31 02:55:07;;;;;;;29.23;15.25;;;;;;;10.61;86.16;100064.43;1735929;82;21080;-67
2023/10/31 02:57:35;;;;;;;27.13;14.40;;;;;;;10.61;86.27;100065.27;1736022;83;21040;-65
2023/10/31 03:00:07;;;;;;;26.50;13.30;;;;;;;10.60;86.35;100069.59;1735859;83;21460;-65
2023/10/31 03:02:35;;;;;;;29.70;14.25;;;;;;;10.59;86.43;100064.63;1735899;83;21031;-67
2023/10/31 03:05:06;;;;;;;26.70;13.45;;;;;;;10.59;86.55;100065.16;1735792;83;21075;-66
2023/10/31 03:07:35;;;;;;;28.15;12.55;;;;;;;10.60;86.56;100071.80;1735994;83;21118;-66
2023/10/31 03:10:05;;;;;;;26.65;12.78;;;;;;;10.58;86.57;100060.73;1735816;83;21016;-65
2023/10/31 03:12:35;;;;;;;24.00;12.55;;;;;;;10.55;86.67;100063.36;1735861;82;21071;-66
2023/10/31 03:15:05;;;;;;;27.50;12.58;;;;;;;10.55;86.73;100064.73;1737658;82;21072;-65
2023/10/31 03:17:34;;;;;;;25.00;12.07;;;;;;;10.56;86.76;100071.89;1740324;82;21459;-65
2023/10/31 03:20:04;;;;;;;23.95;11.90;;;;;;;10.53;86.75;100066.83;1740232;82;21084;-65
2023/10/31 03:22:33;;;;;;;24.37;12.07;;;;;;;10.53;86.82;100061.34;1740223;82;21039;-65
2023/10/31 03:25:04;;;;;;;25.02;11.22;;;;;;;10.55;86.87;100055.66;1740642;82;21055;-65
2023/10/31 03:27:33;;;;;;;27.87;12.10;;;;;;;10.55;86.86;100060.62;1740499;82;21102;-64
2023/10/31 03:30:05;;;;;;;26.50;11.73;;;;;;;10.55;86.84;100067.99;1740398;82;21039;-65
2023/10/31 03:32:34;;;;;;;25.50;11.18;;;;;;;10.55;86.80;100067.47;1740402;82;21059;-66
2023/10/31 03:35:05;;;;;;;23.47;11.75;;;;;;;10.54;86.80;100067.67;1740400;82;21470;-66
2023/10/31 03:37:35;;;;;;;24.90;12.60;;;;;;;10.48;86.79;100063.34;1740536;82;21062;-65
2023/10/31 03:40:07;;;;;;;26.12;11.38;;;;;;;10.44;86.84;100069.43;1740523;82;21092;-66
2023/10/31 03:42:38;;;;;;;24.00;11.83;;;;;;;10.41;86.85;100067.10;1740307;82;21431;-64
2023/10/31 03:45:09;;;;;;;26.82;12.78;;;;;;;10.36;86.91;100070.42;1740326;82;21070;-66
2023/10/31 03:47:38;;;;;;;26.17;11.83;;;;;;;10.35;87.00;100076.95;1740548;82;20996;-65
2023/10/31 03:50:09;;;;;;;32.60;12.63;;;;;;;10.34;87.06;100078.00;1740519;82;21248;-65
2023/10/31 03:52:38;;;;;;;26.37;12.10;;;;;;;10.30;87.04;100082.19;1740584;82;21015;-66
2023/10/31 03:55:08;;;;;;;27.17;11.65;;;;;;;10.25;87.30;100086.59;1740312;82;21031;-65
2023/10/31 03:57:37;;;;;;;25.40;11.60;;;;;;;10.22;87.40;100081.00;1740318;82;21541;-66
2023/10/31 04:00:07;;;;;;;25.25;10.98;;;;;;;10.22;87.47;100086.47;1740280;82;21507;-66
2023/10/31 04:02:40;;;;;;;23.87;10.75;;;;;;;10.20;87.54;100080.35;1740051;82;21024;-66
2023/10/31 04:05:10;;;;;;;24.90;11.80;;;;;;;10.20;87.62;100081.72;1740476;82;21588;-66
2023/10/31 04:07:39;;;;;;;25.65;11.30;;;;;;;10.22;87.65;100080.16;1740400;82;21028;-66
2023/10/31 04:10:09;;;;;;;22.65;10.75;;;;;;;10.22;87.71;100079.62;1758941;81;21142;-68
2023/10/31 04:12:38;;;;;;;23.10;11.15;;;;;;;10.24;87.73;100080.27;1732313;83;21069;-65
2023/10/31 04:15:11;;;;;;;25.75;10.70;;;;;;;10.25;87.60;100071.53;1732061;83;21507;-65
2023/10/31 04:17:40;;;;;;;21.65;10.68;;;;;;;10.26;87.47;100063.63;1734976;81;21044;-66
2023/10/31 04:20:10;;;;;;;24.52;10.63;;;;;;;10.27;87.48;100062.59;1758896;81;21075;-67
2023/10/31 04:22:39;;;;;;;20.23;9.98;;;;;;;10.26;87.39;100064.48;1759070;81;21031;-65
2023/10/31 04:25:08;;;;;;;22.05;10.50;;;;;;;10.25;87.44;100058.69;1758879;81;21008;-66
2023/10/31 04:27:38;;;;;;;24.90;10.68;;;;;;;10.26;87.45;100065.85;1759106;81;21431;-67
2023/10/31 04:30:07;;;;;;;22.37;11.20;;;;;;;10.24;87.45;100059.73;1758836;81;21032;-66
2023/10/31 04:32:38;;;;;;;24.05;10.82;;;;;;;10.23;87.47;100054.46;1734233;81;21056;-66
2023/10/31 04:35:08;;;;;;;26.05;12.63;;;;;;;10.23;87.54;100059.41;1758975;81;21048;-67
2023/10/31 04:37:37;;;;;;;29.37;13.65;;;;;;;10.20;87.54;100065.30;1759106;81;21893;-66
2023/10/31 04:40:06;;;;;;;28.32;14.23;;;;;;;10.17;87.72;100071.99;1758914;81;21071;-65
2023/10/31 04:42:35;;;;;;;36.45;18.52;;;;;;;10.16;87.92;100074.41;1758843;81;21517;-66
2023/10/31 04:45:05;;;;;;;36.35;19.42;;;;;;;10.18;88.01;100079.16;1759011;81;20997;-67
2023/10/31 04:47:34;;;;;;;37.98;20.30;;;;;;;10.20;88.09;100074.87;1691924;84;21102;-66
2023/10/31 04:50:04;;;;;;;36.23;18.87;;;;;;;10.21;88.03;100079.83;1692061;84;21485;-66
2023/10/31 04:52:33;;;;;;;36.70;18.65;;;;;;;10.18;88.01;100086.00;1691982;85;21117;-66
2023/10/31 04:55:02;;;;;;;31.52;16.42;;;;;;;10.18;88.10;100081.89;1691880;84;21666;-66
2023/10/31 04:57:31;;;;;;;27.67;14.93;;;;;;;10.19;88.03;100081.37;1691965;84;21030;-65
2023/10/31 05:00:00;;;;;;;27.67;13.85;;;;;;;10.20;88.01;100078.11;1692130;85;21489;-66
2023/10/31 05:02:29;;;;;;;25.65;13.38;;;;;;;10.17;88.10;100076.09;1691844;85;21090;-67
2023/10/31 05:04:58;;;;;;;25.15;13.62;;;;;;;10.18;88.19;100083.78;1704930;81;21651;-66
2023/10/31 05:07:27;;;;;;;27.13;12.98;;;;;;;10.20;88.22;100092.67;1758852;81;21075;-66
2023/10/31 05:09:56;;;;;;;30.48;12.78;;;;;;;10.22;88.20;100090.58;1758882;81;21487;-65
2023/10/31 05:12:25;;;;;;;27.55;12.98;;;;;;;10.23;88.17;100086.80;1758793;81;21047;-68
2023/10/31 05:14:53;;;;;;;27.00;12.33;;;;;;;10.25;88.13;100083.33;1758989;81;21080;-67
2023/10/31 05:17:22;;;;;;;25.37;12.73;;;;;;;10.30;88.09;100086.30;1759094;81;21032;-65
2023/10/31 05:19:51;;;;;;;25.12;11.75;;;;;;;10.35;87.90;100078.84;1759009;81;21032;-66
2023/10/31 05:22:20;;;;;;;27.95;12.70;;;;;;;10.34;87.74;100073.05;1758878;81;21487;-65
2023/10/31 05:24:51;;;;;;;23.35;12.05;;;;;;;10.34;87.77;100076.62;1758828;81;21028;-65
2023/10/31 05:27:21;;;;;;;26.35;12.28;;;;;;;10.37;87.70;100078.95;1759046;81;21444;-65
2023/10/31 05:29:51;;;;;;;30.05;12.15;;;;;;;10.38;87.52;100090.76;1758803;81;21587;-66
2023/10/31 05:32:20;;;;;;;27.58;12.37;;;;;;;10.35;87.48;100085.16;1758907;81;21059;-67
2023/10/31 05:34:49;;;;;;;28.35;12.35;;;;;;;10.37;87.47;100089.91;1759366;81;21039;-66
2023/10/31 05:37:18;;;;;;;26.65;11.97;;;;;;;10.41;87.38;100088.48;1759118;81;21071;-66
2023/10/31 05:39:47;;;;;;;27.15;12.93;;;;;;;10.45;87.31;100091.14;1759077;81;21428;-68
2023/10/31 05:42:16;;;;;;;25.48;12.28;;;;;;;10.48;87.16;100098.09;1759057;81;21052;-66
2023/10/31 05:44:45;;;;;;;25.77;12.10;;;;;;;10.53;86.94;100100.22;1759123;81;21494;-65
2023/10/31 05:47:15;;;;;;;29.00;14.43;;;;;;;10.57;86.76;100100.98;1759028;81;21024;-66
2023/10/31 05:49:44;;;;;;;27.55;12.20;;;;;;;10.63;86.59;100104.27;1758862;81;21062;-66
2023/10/31 05:52:13;;;;;;;28.35;12.82;;;;;;;10.68;86.33;100096.80;1759118;81;21036;-66
2023/10/31 05:54:43;;;;;;;27.20;11.80;;;;;;;10.74;86.00;100103.67;1758459;81;21491;-65
2023/10/31 05:57:13;;;;;;;27.13;12.28;;;;;;;10.79;85.81;100101.69;1758888;81;21036;-67
2023/10/31 05:59:41;;;;;;;23.30;11.53;;;;;;;10.88;85.65;100103.19;1759067;81;21016;-66
2023/10/31 06:02:10;;;;;;;27.37;12.20;;;;;;;10.91;85.21;100090.95;1758785;81;21557;-66
2023/10/31 06:04:39;;;;;;;30.48;13.78;;;;;;;10.93;84.86;100088.33;1758877;81;21632;-65
2023/10/31 06:07:08;;;;;;;26.52;11.85;;;;;;;10.97;84.71;100090.12;1758762;81;21428;-66
2023/10/31 06:09:39;;;;;;;27.30;11.28;;;;;;;11.00;84.67;100094.67;1758829;81;21024;-67
2023/10/31 06:12:08;;;;;;;29.82;12.93;;;;;;;11.04;84.58;100097.31;1758765;81;21020;-67
2023/10/31 06:14:37;;;;;;;27.42;11.40;;;;;;;11.11;84.38;100095.45;1758666;81;21079;-66
2023/10/31 06:17:06;;;;;;;25.72;11.50;;;;;;;11.17;84.15;100090.19;1758465;81;21511;-64
2023/10/31 06:19:44;;;;;;;28.02;11.57;;;;;;;11.23;83.64;100097.05;1758743;81;21059;-66
2023/10/31 06:22:09;;;;;;;26.50;11.35;;;;;;;11.31;83.03;100097.38;1758396;81;21060;-67
2023/10/31 06:24:38;;;;;;;26.65;10.95;;;;;;;11.38;82.39;100095.48;1758904;81;21024;-66
2023/10/31 06:27:07;;;;;;;27.82;11.50;;;;;;;11.45;81.31;100086.72;1758751;81;21491;-66
2023/10/31 06:29:35;;;;;;;23.32;10.60;;;;;;;11.50;80.45;100091.05;1758670;81;21063;-66
2023/10/31 06:32:07;;;;;;;26.40;11.33;;;;;;;11.55;79.91;100093.16;1755229;81;21076;-66
2023/10/31 06:34:36;;;;;;;24.98;10.78;;;;;;;11.59;79.38;100092.52;1758509;81;21519;-66
2023/10/31 06:37:05;;;;;;;23.40;11.15;;;;;;;11.63;79.12;100096.53;1758764;81;21007;-67
2023/10/31 06:39:35;;;;;;;22.37;9.98;;;;;;;11.69;78.80;100092.09;1758847;81;21533;-66
2023/10/31 06:42:05;;;;;;;29.32;11.35;;;;;;;11.73;78.41;100094.23;1758603;81;21096;-66
2023/10/31 06:44:33;;;;;;;30.12;12.00;;;;;;;11.77;77.54;100097.39;1758696;81;21095;-66
2023/10/31 06:47:04;;;;;;;25.05;11.28;;;;;;;11.80;77.24;100092.04;1758704;81;21800;-66
2023/10/31 06:49:33;;;;;;;25.05;11.00;;;;;;;11.84;76.97;100094.14;1758718;81;21105;-67
2023/10/31 06:52:02;;;;;;;22.87;11.40;;;;;;;11.88;76.77;100089.91;1758991;81;21024;-66
2023/10/31 06:54:35;;;;;;;22.95;11.45;;;;;;;11.94;76.52;100088.22;1758848;81;21019;-66
2023/10/31 06:57:05;;;;;;;24.18;11.50;;;;;;;11.96;76.33;100095.70;1758934;81;20996;-66
2023/10/31 06:59:35;;;;;;;25.55;11.08;;;;;;;12.02;76.11;100097.06;1758838;81;21008;-67
2023/10/31 07:02:05;;;;;;;29.37;11.18;;;;;;;12.06;75.96;100085.13;1758978;81;21020;-67
2023/10/31 07:04:34;;;;;;;23.77;11.03;;;;;;;12.10;75.51;100074.55;1758902;81;21052;-66
2023/10/31 07:07:03;;;;;;;24.10;11.40;;;;;;;12.13;75.46;100076.33;1758821;81;21109;-65
2023/10/31 07:09:32;;;;;;;25.32;11.50;;;;;;;12.18;75.34;100072.41;1758828;81;21020;-66
2023/10/31 07:12:03;;;;;;;26.12;10.65;;;;;;;12.22;75.07;100076.41;1758988;81;20992;-67
2023/10/31 07:14:31;;;;;;;27.25;11.93;;;;;;;12.27;74.92;100082.62;1758715;81;21521;-66
2023/10/31 07:17:00;;;;;;;21.27;11.08;;;;;;;12.31;74.58;100077.02;1758882;81;21137;-67
2023/10/31 07:19:29;;;;;;;27.77;10.72;;;;;;;12.36;74.19;100084.11;1759055;81;21440;-67
2023/10/31 07:21:59;;;;;;;24.70;11.45;;;;;;;12.41;74.08;100088.95;1759221;81;21048;-68
2023/10/31 07:24:28;;;;;;;23.87;10.48;;;;;;;12.47;73.94;100079.84;1759177;81;21023;-67
2023/10/31 07:26:58;;;;;;;21.52;10.03;;;;;;;12.54;73.80;100087.52;1758991;81;21467;-66
2023/10/31 07:29:28;;;;;;;23.25;10.53;;;;;;;12.63;73.67;100084.83;1759237;81;21044;-66
2023/10/31 07:31:57;;;;;;;22.40;11.03;;;;;;;12.78;73.42;100077.14;1759085;81;21013;-66
2023/10/31 07:34:29;;;;;;;23.18;11.33;;;;;;;12.93;73.14;100069.97;1759112;81;21056;-68
2023/10/31 07:36:58;;;;;;;21.42;10.05;;;;;;;13.11;72.59;100056.86;1759267;81;21099;-69
2023/10/31 07:39:27;;;;;;;23.62;9.90;;;;;;;13.30;71.89;100049.87;1759339;81;21632;-69
2023/10/31 07:41:56;;;;;;;23.32;10.50;;;;;;;13.50;71.20;100056.58;1759001;81;21028;-67
2023/10/31 07:44:24;;;;;;;23.65;9.70;;;;;;;13.68;70.43;100064.07;1758950;81;21021;-68
2023/10/31 07:46:53;;;;;;;22.25;9.93;;;;;;;13.87;69.67;100059.44;1759083;81;21055;-67
2023/10/31 07:49:23;;;;;;;21.75;10.05;;;;;;;14.02;69.08;100053.55;1692028;85;21161;-67
2023/10/31 07:51:52;;;;;;;21.68;10.43;;;;;;;14.17;68.17;100063.13;1692237;85;21069;-68
2023/10/31 07:54:23;;;;;;;24.27;9.65;;;;;;;14.33;67.97;100063.08;1692006;85;21086;-67
2023/10/31 07:56:52;;;;;;;28.62;11.70;;;;;;;14.53;67.55;100057.34;1692206;85;21086;-67
2023/10/31 07:59:21;;;;;;;26.33;12.18;;;;;;;14.77;66.90;100060.52;1692220;85;21058;-68
2023/10/31 08:01:52;;;;;;;28.65;11.57;;;;;;;15.00;66.29;100068.61;1692050;85;21465;-67
2023/10/31 08:04:21;;;;;;;24.72;10.80;;;;;;;15.19;65.57;100061.94;1692032;85;21065;-66
2023/10/31 08:06:50;;;;;;;24.95;10.40;;;;;;;15.35;64.86;100058.49;1692147;85;21504;-66
2023/10/31 08:09:20;;;;;;;25.52;10.18;;;;;;;15.45;63.90;100046.87;1692191;85;21125;-68
2023/10/31 08:11:49;;;;;;;23.85;10.45;;;;;;;15.53;63.41;100049.27;1692071;85;21030;-66
2023/10/31 08:14:17;;;;;;;21.48;10.40;;;;;;;15.57;63.04;100047.72;1734039;81;21472;-68
2023/10/31 08:16:46;;;;;;;20.85;10.05;;;;;;;15.57;62.96;100044.11;1758927;81;21479;-67
2023/10/31 08:19:15;;;;;;;18.40;9.30;;;;;;;15.55;62.77;100041.59;1759026;81;21039;-70
2023/10/31 08:21:44;;;;;;;22.80;9.78;;;;;;;15.52;62.75;100035.17;1758894;81;21060;-67
2023/10/31 08:24:15;;;;;;;17.92;8.90;;;;;;;15.52;62.94;100024.97;1759022;81;21048;-65
2023/10/31 08:26:44;;;;;;;21.97;8.78;;;;;;;15.54;62.97;100020.58;1758713;81;21051;-67
2023/10/31 08:29:13;;;;;;;20.17;9.13;;;;;;;15.51;62.86;100019.14;1758984;81;21044;-67
2023/10/31 08:31:42;;;;;;;18.45;8.50;;;;;;;15.47;62.90;100013.80;1758918;81;21047;-66
2023/10/31 08:34:11;;;;;;;21.65;9.00;;;;;;;15.41;63.00;100016.13;1758891;81;21032;-67
2023/10/31 08:36:40;;;;;;;18.32;8.45;;;;;;;15.36;63.27;100014.63;1758720;81;21000;-67
2023/10/31 08:39:11;;;;;;;15.43;8.30;;;;;;;15.32;63.48;100009.28;1758833;81;21442;-68
2023/10/31 08:41:52;;;;;;;20.68;8.25;;;;;;;15.30;63.72;100012.82;1758841;81;21459;-66
2023/10/31 08:44:21;;;;;;;18.07;7.55;;;;;;;15.28;63.99;100014.98;1758979;81;21456;-66
2023/10/31 08:46:50;;;;;;;22.05;8.53;;;;;;;15.28;64.27;100007.23;1758980;81;21039;-67
2023/10/31 08:49:19;;;;;;;18.15;7.90;;;;;;;15.29;64.50;100003.39;1758847;81;21488;-66
2023/10/31 08:51:49;;;;;;;17.90;8.18;;;;;;;15.30;64.68;99997.64;1754510;80;21455;-68
2023/10/31 08:54:17;;;;;;;17.90;7.65;;;;;;;15.30;64.46;99992.66;1743803;81;21099;-68
2023/10/31 08:56:46;;;;;;;23.77;7.70;;;;;;;15.33;64.52;99987.50;1748256;81;21016;-67
2023/10/31 08:59:15;;;;;;;21.45;8.08;;;;;;;15.39;64.40;99977.42;1758713;81;21032;-71
2023/10/31 09:01:45;;;;;;;15.68;7.35;;;;;;;15.44;64.52;99977.55;1734697;81;20991;-67
2023/10/31 09:04:14;;;;;;;18.07;6.47;;;;;;;15.50;64.79;99965.00;1738038;81;21522;-69
2023/10/31 09:06:43;;;;;;;15.10;5.28;;;;;;;15.60;64.53;99958.06;1758581;81;21027;-69
2023/10/31 09:09:13;;;;;;;13.65;5.33;;;;;;;15.69;63.81;99967.14;1746387;81;21098;-69
2023/10/31 09:11:42;;;;;;;13.88;5.62;;;;;;;15.76;63.29;99952.66;1732176;83;21442;-67
2023/10/31 09:14:12;;;;;;;15.30;7.37;;;;;;;15.83;63.04;99947.84;1731890;81;21098;-70
2023/10/31 09:16:41;;;;;;;15.55;6.75;;;;;;;15.89;62.91;99934.98;1728458;83;21125;-71
2023/10/31 09:19:10;;;;;;;17.10;5.95;;;;;;;15.97;63.02;99944.81;1719905;83;21110;-70
2023/10/31 09:21:40;;;;;;;15.40;6.47;;;;;;;16.04;62.87;99940.83;1720111;83;21055;-68
2023/10/31 09:24:11;;;;;;;16.60;6.10;;;;;;;16.17;62.65;99932.25;1719968;83;21078;-70
2023/10/31 09:26:43;;;;;;;16.90;5.85;;;;;;;16.27;62.49;99925.28;1739239;82;21044;-72
2023/10/31 09:29:12;;;;;;;11.55;5.70;;;;;;;16.33;62.26;99929.82;1751565;82;21016;-70
2023/10/31 09:31:42;;;;;;;11.53;5.08;;;;;;;16.41;61.66;99919.20;1749372;82;21125;-70
2023/10/31 09:34:12;;;;;;;9.68;4.80;;;;;;;16.51;61.18;99919.09;1751449;82;21478;-70
2023/10/31 09:36:42;;;;;;;14.40;5.92;;;;;;;16.56;60.81;99917.27;1751736;82;21427;-69
2023/10/31 09:39:12;;;;;;;16.75;6.40;;;;;;;16.63;60.92;99911.03;1729609;82;21048;-70
2023/10/31 09:41:41;;;;;;;13.72;6.28;;;;;;;16.65;60.87;99906.12;1751301;82;21456;-70
2023/10/31 09:44:10;;;;;;;15.30;5.90;;;;;;;16.67;60.75;99900.34;1751371;82;21645;-70
2023/10/31 09:46:40;;;;;;;13.65;5.95;;;;;;;16.68;60.76;99888.18;1751463;82;21072;-70
2023/10/31 09:49:10;;;;;;;14.73;5.58;;;;;;;16.70;60.49;99886.00;1751624;82;21513;-70
2023/10/31 09:51:39;;;;;;;11.38;5.75;;;;;;;16.73;60.44;99883.58;1751327;82;21098;-70
2023/10/31 09:54:08;;;;;;;12.10;5.67;;;;;;;16.77;60.43;99883.91;1751516;82;21099;-70
2023/10/31 09:56:38;;;;;;;18.67;5.92;;;;;;;16.79;60.66;99873.43;1751614;82;21052;-70
2023/10/31 09:59:06;;;;;;;13.93;5.45;;;;;;;16.81;60.60;99868.48;1751357;82;21059;-68
2023/10/31 10:01:36;;;;;;;13.60;5.60;;;;;;;16.83;60.59;99868.23;1721741;82;21090;-72
2023/10/31 10:04:07;;;;;;;13.08;5.37;;;;;;;16.89;60.59;99864.45;1631895;87;21534;-69
2023/10/31 10:06:35;;;;;;;14.47;7.10;;;;;;;16.92;60.46;99853.75;1651777;87;21083;-70
2023/10/31 10:09:06;;;;;;;12.68;5.08;;;;;;;16.97;60.60;99855.77;1614618;89;21531;-70
2023/10/31 10:11:35;;;;;;;15.08;5.10;;;;;;;17.02;60.33;99859.99;1642008;87;21050;-71
2023/10/31 10:14:09;;;;;;;12.78;4.95;;;;;;;17.07;60.41;99862.30;1614796;89;21163;-70
2023/10/31 10:16:36;;;;;;;12.53;5.20;;;;;;;17.12;60.15;99858.77;1614815;88;21120;-69
2023/10/31 10:19:19;;;;;;;12.23;5.00;;;;;;;17.17;60.25;99861.61;1658135;86;21023;-69
2023/10/31 10:21:55;;;;;;;12.23;4.90;;;;;;;17.20;60.40;99858.33;1644252;84;21133;-72
2023/10/31 10:24:25;;;;;;;9.08;4.20;;;;;;;17.23;60.42;99857.82;1729708;83;21071;-68
2023/10/31 10:26:54;;;;;;;8.40;4.42;;;;;;;17.24;60.51;99863.65;1724875;82;21031;-64
2023/10/31 10:29:24;;;;;;;6.92;4.00;;;;;;;17.27;60.46;99859.53;1725134;83;21071;-65
2023/10/31 10:31:53;;;;;;;7.15;3.83;;;;;;;17.32;60.49;99860.99;1724996;83;21119;-66
2023/10/31 10:34:22;;;;;;;7.70;3.60;;;;;;;17.38;60.37;99859.42;1706295;84;21034;-65
2023/10/31 10:36:52;;;;;;;10.43;4.60;;;;;;;17.43;60.44;99858.66;1668585;86;21039;-65
2023/10/31 10:39:22;;;;;;;8.90;4.00;;;;;;;17.46;60.30;99847.06;1668722;86;21118;-65
2023/10/31 10:41:55;;;;;;;13.45;7.30;;;;;;;17.53;60.27;99846.88;1668526;86;21122;-66
2023/10/31 10:44:35;;;;;;;9.85;5.60;;;;;;;17.59;60.02;99847.27;1668605;86;21091;-65
2023/10/31 10:47:06;;;;;;;9.40;5.37;;;;;;;17.62;60.11;99842.59;1668653;86;21544;-64
2023/10/31 10:49:37;;;;;;;9.15;4.62;;;;;;;17.67;60.24;99846.84;1668709;86;21063;-65
2023/10/31 10:52:24;;;;;;;9.93;4.20;;;;;;;17.69;60.38;99839.11;1668490;86;21078;-64
2023/10/31 10:55:07;;;;;;;9.60;4.42;;;;;;;17.73;60.53;99834.19;1668616;86;21086;-64
2023/10/31 10:57:58;;;;;;;11.05;3.75;;;;;;;17.80;60.51;99833.15;1829539;77;22608;-66
2023/10/31 11:00:29;;;;;;;11.80;4.03;;;;;;;17.77;60.80;99824.80;1787802;80;21143;-64
2023/10/31 11:03:00;;;;;;;6.22;3.70;;;;;;;17.79;60.90;99817.07;1722527;83;21112;-66
2023/10/31 11:05:30;;;;;;;9.68;4.33;;;;;;;17.84;60.92;99819.90;1722597;83;21594;-67
2023/10/31 11:08:00;;;;;;;12.68;4.00;;;;;;;17.87;61.03;99808.30;1722310;83;21579;-65
2023/10/31 11:10:30;;;;;;;7.87;3.70;;;;;;;17.90;61.23;99811.93;1722633;83;21182;-67
2023/10/31 11:12:59;;;;;;;11.73;4.40;;;;;;;17.92;61.30;99813.89;1722542;83;21190;-66
2023/10/31 11:15:30;;;;;;;15.60;9.53;;;;;;;17.95;61.52;99814.76;1722379;83;21173;-67
2023/10/31 11:18:02;;;;;;;11.50;7.30;;;;;;;17.97;61.80;99808.41;1722534;83;21155;-64
2023/10/31 11:20:32;;;;;;;12.50;3.92;;;;;;;18.00;61.87;99814.81;1722535;83;21170;-64
2023/10/31 11:23:04;;;;;;;13.98;4.25;;;;;;;18.02;61.86;99804.85;1722374;83;21139;-66
2023/10/31 11:25:32;;;;;;;7.42;3.75;;;;;;;18.05;62.17;99798.78;1695045;83;21182;-72